createdAt,value
2022-11-10T00:00:05.997Z,16.23
2022-11-10T00:02:53.408Z,13.37
2022-11-10T00:05:42.039Z,12.77
2022-11-10T00:08:29.099Z,9.37
2022-11-10T00:11:16.153Z,15.03
2022-11-10T00:14:23.366Z,22.87
2022-11-10T00:17:10.920Z,25.57
2022-11-10T00:19:57.842Z,26.17
2022-11-10T00:22:44.756Z,24.03
2022-11-10T00:25:33.075Z,21.57
2022-11-10T00:28:19.831Z,21.73
2022-11-10T00:31:08.931Z,23.27
2022-11-10T00:33:56.003Z,25.47
2022-11-10T00:36:43.844Z,25.43
2022-11-10T00:39:30.859Z,24.63
2022-11-10T00:42:17.912Z,21.67
2022-11-10T00:45:05.910Z,23.20
2022-11-10T00:47:54.685Z,27.27
2022-11-10T00:50:41.749Z,38.07
2022-11-10T00:53:42.923Z,42.37
2022-11-10T00:56:30.886Z,40.30
2022-11-10T00:59:18.148Z,35.60
2022-11-10T01:02:05.461Z,27.87
2022-11-10T01:04:54.086Z,29.83
2022-11-10T01:07:41.348Z,25.77
2022-11-10T01:10:28.209Z,23.63
2022-11-10T01:13:15.194Z,23.23
2022-11-10T01:16:05.781Z,26.20
2022-11-10T01:18:53.865Z,27.50
2022-11-10T01:21:42.626Z,27.23
2022-11-10T01:24:29.327Z,25.83
2022-11-10T01:27:16.202Z,22.57
2022-11-10T01:30:03.656Z,24.43
2022-11-10T01:32:50.558Z,23.27
2022-11-10T01:35:38.172Z,23.27
2022-11-10T01:38:28.880Z,20.93
2022-11-10T01:41:16.006Z,18.97
2022-11-10T01:44:17.408Z,19.13
2022-11-10T01:47:04.748Z,18.30
2022-11-10T01:49:51.848Z,17.90
2022-11-10T01:52:39.040Z,21.30
2022-11-10T01:55:28.624Z,22.10
2022-11-10T01:58:18.155Z,16.70
2022-11-10T02:01:05.320Z,15.37
2022-11-10T02:03:55.005Z,15.13
2022-11-10T02:06:44.852Z,16.97
2022-11-10T02:09:32.104Z,14.77
2022-11-10T02:12:36.978Z,14.07
2022-11-10T02:15:25.112Z,15.60
2022-11-10T02:18:12.332Z,15.33
2022-11-10T02:21:00.767Z,14.47
2022-11-10T02:23:50.635Z,18.50
2022-11-10T02:26:42.431Z,15.03
2022-11-10T02:29:31.576Z,14.70
2022-11-10T02:32:18.732Z,12.17
2022-11-10T02:35:06.633Z,11.77
2022-11-10T02:37:55.484Z,13.70
2022-11-10T02:40:42.763Z,16.80
2022-11-10T02:43:30.405Z,13.40
2022-11-10T02:46:17.372Z,15.90
2022-11-10T02:49:04.787Z,12.27
2022-11-10T02:51:51.690Z,13.07
2022-11-10T02:54:39.759Z,12.27
2022-11-10T02:57:26.544Z,11.03
2022-11-10T03:00:14.221Z,12.63
2022-11-10T03:03:02.363Z,13.10
2022-11-10T03:05:49.155Z,11.27
2022-11-10T03:08:35.980Z,11.53
2022-11-10T03:11:29.363Z,15.70
2022-11-10T03:14:18.729Z,11.40
2022-11-10T03:17:05.755Z,13.60
2022-11-10T03:19:52.800Z,13.80
2022-11-10T03:22:39.867Z,14.90
2022-11-10T03:25:27.123Z,13.70
2022-11-10T03:28:18.191Z,15.50
2022-11-10T03:31:05.522Z,16.70
2022-11-10T03:33:53.006Z,16.33
2022-11-10T03:36:40.179Z,18.47
2022-11-10T03:39:27.041Z,19.23
2022-11-10T03:42:14.238Z,19.17
2022-11-10T03:45:02.852Z,16.00
2022-11-10T03:47:51.117Z,19.40
2022-11-10T03:50:38.340Z,22.00
2022-11-10T03:53:25.516Z,19.63
2022-11-10T03:56:13.443Z,50.47
2022-11-10T03:59:00.403Z,62.37
2022-11-10T04:01:48.831Z,59.33
2022-11-10T04:04:52.780Z,18.97
2022-11-10T04:07:56.844Z,14.53
2022-11-10T04:10:44.202Z,7.03
2022-11-10T04:13:48.294Z,60.13
2022-11-10T04:16:35.421Z,6.07
2022-11-10T04:19:23.896Z,7.00
2022-11-10T04:22:30.693Z,7.00
2022-11-10T04:25:17.476Z,6.60
2022-11-10T04:28:04.637Z,7.60
2022-11-10T04:30:51.768Z,6.40
2022-11-10T04:33:39.647Z,8.80
2022-11-10T04:36:30.170Z,8.87
2022-11-10T04:39:17.149Z,8.53
2022-11-10T04:42:03.886Z,17.87
2022-11-10T04:44:50.709Z,14.87
2022-11-10T04:47:37.440Z,14.17
2022-11-10T04:50:24.140Z,11.87
2022-11-10T04:53:12.352Z,13.67
2022-11-10T04:55:59.445Z,11.20
2022-11-10T04:58:46.638Z,13.07
2022-11-10T05:01:33.439Z,7.53
2022-11-10T05:04:20.287Z,7.63
2022-11-10T05:07:07.110Z,5.37
2022-11-10T05:09:55.197Z,4.80
2022-11-10T05:12:42.244Z,6.17
2022-11-10T05:15:28.985Z,5.43
2022-11-10T05:18:15.710Z,5.67
2022-11-10T05:21:02.967Z,6.30
2022-11-10T05:23:49.530Z,5.30
2022-11-10T05:26:37.629Z,5.27
2022-11-10T05:29:24.899Z,5.87
2022-11-10T05:32:11.712Z,5.00
2022-11-10T05:34:58.470Z,4.90
2022-11-10T05:37:45.411Z,9.50
2022-11-10T05:40:32.736Z,11.53
2022-11-10T05:43:21.821Z,12.13
2022-11-10T05:46:09.439Z,8.90
2022-11-10T05:48:56.587Z,9.47
2022-11-10T05:51:44.014Z,8.90
2022-11-10T05:54:31.280Z,10.77
2022-11-10T05:57:18.556Z,9.20
2022-11-10T06:00:09.766Z,9.20
2022-11-10T06:03:01.978Z,8.37
2022-11-10T06:05:49.041Z,10.40
2022-11-10T06:08:36.525Z,12.53
2022-11-10T06:14:38.272Z,11.93
2022-11-10T06:17:27.108Z,8.63
2022-11-10T06:20:15.379Z,11.23
2022-11-10T06:23:03.914Z,10.33
2022-11-10T06:25:50.928Z,12.30
2022-11-10T06:28:37.759Z,6.93
2022-11-10T06:31:24.852Z,8.23
2022-11-10T06:34:13.418Z,7.00
2022-11-10T06:37:00.351Z,8.63
2022-11-10T06:39:47.580Z,8.37
2022-11-10T06:42:35.183Z,40.00
2022-11-10T22:31:12.846Z,15.13
2022-11-10T22:33:59.716Z,18.70
2022-11-10T22:36:49.278Z,16.63
2022-11-10T22:39:56.376Z,15.90
2022-11-10T22:43:00.975Z,16.23
2022-11-10T22:45:47.930Z,14.60
2022-11-10T22:48:36.156Z,16.17
2022-11-10T22:51:22.993Z,12.20
2022-11-10T22:54:12.106Z,15.20
2022-11-10T22:56:58.850Z,14.80
2022-11-10T22:59:45.696Z,17.83
2022-11-10T23:02:32.391Z,16.50
2022-11-10T23:05:20.616Z,18.23
2022-11-10T23:08:07.675Z,19.47
2022-11-10T23:10:59.616Z,16.23
2022-11-10T23:13:47.257Z,13.60
2022-11-10T23:16:35.724Z,14.33
2022-11-10T23:19:22.449Z,17.30
2022-11-10T23:22:10.568Z,16.63
2022-11-10T23:24:57.794Z,17.03
2022-11-10T23:27:44.456Z,17.23
2022-11-10T23:30:31.080Z,16.73
2022-11-10T23:33:17.873Z,16.23
2022-11-10T23:36:05.128Z,18.87
2022-11-10T23:38:55.029Z,19.07
2022-11-10T23:41:41.778Z,19.60
2022-11-10T23:44:28.503Z,19.20
2022-11-10T23:47:15.328Z,17.33
2022-11-10T23:50:02.057Z,16.30
2022-11-10T23:52:48.892Z,16.40
2022-11-10T23:55:37.191Z,16.87
2022-11-10T23:58:24.182Z,15.33
